sensor_id;sensor_type;location;lat;lon;timestamp;pressure;altitude;pressure_sealevel;temperature;humidity
38022;BME280;23832;43.216;27.946;2022-08-23T00:01:50;100116.59;;;25.61;100.00
38022;BME280;23832;43.216;27.946;2022-08-23T00:03:58;100125.50;;;25.62;100.00
38022;BME280;23832;43.216;27.946;2022-08-23T00:06:00;100123.81;;;25.66;100.00
38022;BME280;23832;43.216;27.946;2022-08-23T00:08:03;100121.09;;;25.71;100.00
38022;BME280;23832;43.216;27.946;2022-08-23T00:10:07;100110.03;;;25.67;100.00
38022;BME280;23832;43.216;27.946;2022-08-23T00:12:12;100124.31;;;25.73;100.00
38022;BME280;23832;43.216;27.946;2022-08-23T00:14:17;100148.09;;;25.71;100.00
38022;BME280;23832;43.216;27.946;2022-08-23T00:16:21;100116.75;;;25.70;100.00
38022;BME280;23832;43.216;27.946;2022-08-23T00:18:23;100125.94;;;25.69;100.00
38022;BME280;23832;43.216;27.946;2022-08-23T00:20:26;100121.63;;;25.73;100.00
38022;BME280;23832;43.216;27.946;2022-08-23T00:22:28;100124.03;;;25.74;100.00
38022;BME280;23832;43.216;27.946;2022-08-23T00:24:30;100133.75;;;25.75;100.00
38022;BME280;23832;43.216;27.946;2022-08-23T00:26:48;100138.03;;;25.77;100.00
38022;BME280;23832;43.216;27.946;2022-08-23T00:28:50;100139.94;;;25.76;100.00
38022;BME280;23832;43.216;27.946;2022-08-23T00:30:52;100144.31;;;25.67;100.00
38022;BME280;23832;43.216;27.946;2022-08-23T00:32:56;100144.59;;;25.65;100.00
38022;BME280;23832;43.216;27.946;2022-08-23T00:34:59;100139.06;;;25.52;100.00
38022;BME280;23832;43.216;27.946;2022-08-23T00:37:02;100150.66;;;25.52;100.00
38022;BME280;23832;43.216;27.946;2022-08-23T00:39:05;100148.78;;;25.53;100.00
38022;BME280;23832;43.216;27.946;2022-08-23T00:41:07;100145.00;;;25.54;100.00
38022;BME280;23832;43.216;27.946;2022-08-23T00:43:11;100142.00;;;25.55;100.00
38022;BME280;23832;43.216;27.946;2022-08-23T00:45:36;100134.56;;;25.42;100.00
38022;BME280;23832;43.216;27.946;2022-08-23T00:47:59;100145.25;;;25.52;100.00
38022;BME280;23832;43.216;27.946;2022-08-23T00:50:11;100141.84;;;25.41;100.00
38022;BME280;23832;43.216;27.946;2022-08-23T00:52:21;100148.09;;;25.37;100.00
38022;BME280;23832;43.216;27.946;2022-08-23T00:54:25;100150.75;;;25.42;100.00
38022;BME280;23832;43.216;27.946;2022-08-23T00:56:30;100139.72;;;25.38;100.00
38022;BME280;23832;43.216;27.946;2022-08-23T00:58:34;100138.44;;;25.31;100.00
38022;BME280;23832;43.216;27.946;2022-08-23T01:00:36;100142.44;;;25.33;100.00
38022;BME280;23832;43.216;27.946;2022-08-23T01:02:39;100143.59;;;25.27;100.00
38022;BME280;23832;43.216;27.946;2022-08-23T01:04:44;100146.31;;;25.22;100.00
38022;BME280;23832;43.216;27.946;2022-08-23T01:06:54;100150.69;;;25.18;100.00
38022;BME280;23832;43.216;27.946;2022-08-23T01:09:05;100147.44;;;25.16;100.00
38022;BME280;23832;43.216;27.946;2022-08-23T01:11:12;100149.38;;;25.10;100.00
38022;BME280;23832;43.216;27.946;2022-08-23T01:13:19;100155.88;;;25.09;100.00
38022;BME280;23832;43.216;27.946;2022-08-23T01:15:25;100162.59;;;25.07;100.00
38022;BME280;23832;43.216;27.946;2022-08-23T01:17:33;100151.28;;;25.10;100.00
38022;BME280;23832;43.216;27.946;2022-08-23T01:19:38;100155.13;;;24.94;100.00
38022;BME280;23832;43.216;27.946;2022-08-23T01:21:45;100154.09;;;24.84;100.00
38022;BME280;23832;43.216;27.946;2022-08-23T01:23:54;100163.31;;;24.78;100.00
38022;BME280;23832;43.216;27.946;2022-08-23T01:25:57;100153.06;;;24.80;100.00
38022;BME280;23832;43.216;27.946;2022-08-23T01:27:59;100159.84;;;24.73;100.00
38022;BME280;23832;43.216;27.946;2022-08-23T01:30:05;100152.06;;;24.61;100.00
38022;BME280;23832;43.216;27.946;2022-08-23T01:32:08;100147.25;;;24.58;100.00
38022;BME280;23832;43.216;27.946;2022-08-23T01:34:11;100147.34;;;24.38;100.00
38022;BME280;23832;43.216;27.946;2022-08-23T01:36:16;100150.28;;;24.46;100.00
38022;BME280;23832;43.216;27.946;2022-08-23T01:38:18;100146.22;;;24.49;100.00
38022;BME280;23832;43.216;27.946;2022-08-23T01:40:23;100148.91;;;24.54;100.00
38022;BME280;23832;43.216;27.946;2022-08-23T01:42:25;100144.03;;;24.56;100.00
38022;BME280;23832;43.216;27.946;2022-08-23T01:44:27;100147.81;;;24.55;100.00
38022;BME280;23832;43.216;27.946;2022-08-23T01:46:29;100152.38;;;24.54;100.00
38022;BME280;23832;43.216;27.946;2022-08-23T01:48:31;100156.97;;;24.54;100.00
38022;BME280;23832;43.216;27.946;2022-08-23T01:50:34;100150.81;;;24.43;100.00
38022;BME280;23832;43.216;27.946;2022-08-23T01:52:37;100153.78;;;24.42;100.00
38022;BME280;23832;43.216;27.946;2022-08-23T01:54:39;100159.16;;;24.47;100.00
38022;BME280;23832;43.216;27.946;2022-08-23T01:56:42;100158.38;;;24.41;100.00
38022;BME280;23832;43.216;27.946;2022-08-23T01:58:46;100160.50;;;24.44;100.00
38022;BME280;23832;43.216;27.946;2022-08-23T02:00:48;100159.47;;;24.35;100.00
38022;BME280;23832;43.216;27.946;2022-08-23T02:02:50;100161.91;;;24.37;100.00
38022;BME280;23832;43.216;27.946;2022-08-23T02:04:52;100161.34;;;24.40;100.00
38022;BME280;23832;43.216;27.946;2022-08-23T02:06:54;100163.75;;;24.41;100.00
38022;BME280;23832;43.216;27.946;2022-08-23T02:08:56;100149.78;;;24.29;100.00
38022;BME280;23832;43.216;27.946;2022-08-23T02:11:06;100162.66;;;24.42;100.00
38022;BME280;23832;43.216;27.946;2022-08-23T02:13:10;100160.00;;;24.32;100.00
38022;BME280;23832;43.216;27.946;2022-08-23T02:15:13;100167.28;;;24.37;100.00
38022;BME280;23832;43.216;27.946;2022-08-23T02:17:16;100171.59;;;24.32;100.00
38022;BME280;23832;43.216;27.946;2022-08-23T02:19:18;100168.09;;;24.37;100.00
38022;BME280;23832;43.216;27.946;2022-08-23T02:21:21;100156.53;;;24.31;100.00
38022;BME280;23832;43.216;27.946;2022-08-23T02:23:23;100166.22;;;24.32;100.00
38022;BME280;23832;43.216;27.946;2022-08-23T02:25:25;100174.00;;;24.34;100.00
38022;BME280;23832;43.216;27.946;2022-08-23T02:27:27;100180.19;;;24.34;100.00
38022;BME280;23832;43.216;27.946;2022-08-23T02:29:33;100181.28;;;24.39;100.00
38022;BME280;23832;43.216;27.946;2022-08-23T02:31:35;100191.25;;;24.33;100.00
38022;BME280;23832;43.216;27.946;2022-08-23T02:33:37;100198.53;;;24.32;100.00
38022;BME280;23832;43.216;27.946;2022-08-23T02:35:42;100198.53;;;24.27;100.00
38022;BME280;23832;43.216;27.946;2022-08-23T02:37:45;100200.66;;;24.30;100.00
38022;BME280;23832;43.216;27.946;2022-08-23T02:39:47;100195.03;;;24.32;100.00
38022;BME280;23832;43.216;27.946;2022-08-23T02:41:49;100193.69;;;24.29;100.00
38022;BME280;23832;43.216;27.946;2022-08-23T02:43:52;100208.22;;;24.28;100.00
38022;BME280;23832;43.216;27.946;2022-08-23T02:45:56;100208.50;;;24.27;100.00
38022;BME280;23832;43.216;27.946;2022-08-23T02:47:58;100202.84;;;24.28;100.00
38022;BME280;23832;43.216;27.946;2022-08-23T02:50:00;100210.41;;;24.26;100.00
38022;BME280;23832;43.216;27.946;2022-08-23T02:52:04;100215.78;;;24.21;100.00
38022;BME280;23832;43.216;27.946;2022-08-23T02:54:06;100217.91;;;24.34;100.00
38022;BME280;23832;43.216;27.946;2022-08-23T02:56:09;100227.63;;;24.36;100.00
38022;BME280;23832;43.216;27.946;2022-08-23T02:58:11;100226.00;;;24.29;100.00
38022;BME280;23832;43.216;27.946;2022-08-23T03:00:16;100224.94;;;24.36;100.00
38022;BME280;23832;43.216;27.946;2022-08-23T03:02:20;100228.41;;;24.31;100.00
38022;BME280;23832;43.216;27.946;2022-08-23T03:04:22;100220.38;;;24.11;100.00
38022;BME280;23832;43.216;27.946;2022-08-23T03:06:25;100234.06;;;24.24;100.00
38022;BME280;23832;43.216;27.946;2022-08-23T03:08:27;100231.13;;;24.21;100.00
38022;BME280;23832;43.216;27.946;2022-08-23T03:10:30;100241.63;;;24.22;100.00
38022;BME280;23832;43.216;27.946;2022-08-23T03:12:32;100244.59;;;24.21;100.00
38022;BME280;23832;43.216;27.946;2022-08-23T03:14:34;100238.13;;;24.17;100.00
38022;BME280;23832;43.216;27.946;2022-08-23T03:16:37;100241.34;;;24.24;100.00
38022;BME280;23832;43.216;27.946;2022-08-23T03:18:40;100237.84;;;24.28;100.00
38022;BME280;23832;43.216;27.946;2022-08-23T03:20:42;100238.94;;;24.27;100.00
38022;BME280;23832;43.216;27.946;2022-08-23T03:22:44;100235.69;;;24.25;100.00
38022;BME280;23832;43.216;27.946;2022-08-23T03:24:46;100238.13;;;24.32;100.00
38022;BME280;23832;43.216;27.946;2022-08-23T03:26:48;100239.47;;;24.40;100.00
38022;BME280;23832;43.216;27.946;2022-08-23T03:28:50;100233.78;;;24.46;100.00
38022;BME280;23832;43.216;27.946;2022-08-23T03:30:52;100237.25;;;24.52;100.00
38022;BME280;23832;43.216;27.946;2022-08-23T03:32:54;100242.91;;;24.60;100.00
38022;BME280;23832;43.216;27.946;2022-08-23T03:34:58;100245.03;;;24.69;100.00
38022;BME280;23832;43.216;27.946;2022-08-23T03:37:00;100246.09;;;24.73;100.00
38022;BME280;23832;43.216;27.946;2022-08-23T03:39:03;100246.88;;;24.78;100.00
38022;BME280;23832;43.216;27.946;2022-08-23T03:41:07;100248.75;;;24.83;100.00
38022;BME280;23832;43.216;27.946;2022-08-23T03:43:09;100247.09;;;24.87;100.00
38022;BME280;23832;43.216;27.946;2022-08-23T03:45:11;100253.28;;;24.92;100.00
38022;BME280;23832;43.216;27.946;2022-08-23T03:47:13;100256.75;;;24.98;100.00
38022;BME280;23832;43.216;27.946;2022-08-23T03:49:15;100264.06;;;25.03;100.00
38022;BME280;23832;43.216;27.946;2022-08-23T03:51:20;100261.34;;;25.08;100.00
38022;BME280;23832;43.216;27.946;2022-08-23T03:53:22;100251.06;;;25.10;100.00
38022;BME280;23832;43.216;27.946;2022-08-23T03:55:25;100256.16;;;25.16;100.00
38022;BME280;23832;43.216;27.946;2022-08-23T03:57:33;100259.38;;;25.18;100.00
38022;BME280;23832;43.216;27.946;2022-08-23T03:59:49;100266.69;;;25.18;100.00
38022;BME280;23832;43.216;27.946;2022-08-23T04:01:51;100265.28;;;25.26;100.00
38022;BME280;23832;43.216;27.946;2022-08-23T04:03:53;100264.44;;;25.30;100.00
38022;BME280;23832;43.216;27.946;2022-08-23T04:05:58;100268.19;;;25.34;100.00
38022;BME280;23832;43.216;27.946;2022-08-23T04:08:07;100270.84;;;25.39;100.00
38022;BME280;23832;43.216;27.946;2022-08-23T04:10:10;100259.28;;;25.34;100.00
38022;BME280;23832;43.216;27.946;2022-08-23T04:12:15;100264.06;;;25.42;100.00
38022;BME280;23832;43.216;27.946;2022-08-23T04:14:22;100260.28;;;25.43;100.00
38022;BME280;23832;43.216;27.946;2022-08-23T04:16:25;100264.34;;;25.45;100.00
38022;BME280;23832;43.216;27.946;2022-08-23T04:18:28;100259.97;;;25.50;100.00
38022;BME280;23832;43.216;27.946;2022-08-23T04:20:31;100268.06;;;25.55;100.00
38022;BME280;23832;43.216;27.946;2022-08-23T04:22:33;100257.75;;;25.62;100.00
38022;BME280;23832;43.216;27.946;2022-08-23T04:24:37;100255.50;;;25.69;100.00
38022;BME280;23832;43.216;27.946;2022-08-23T04:26:39;100251.72;;;25.75;100.00
38022;BME280;23832;43.216;27.946;2022-08-23T04:28:41;100250.59;;;25.81;100.00
38022;BME280;23832;43.216;27.946;2022-08-23T04:30:43;100251.09;;;25.88;100.00
38022;BME280;23832;43.216;27.946;2022-08-23T04:32:45;100254.25;;;25.95;100.00
38022;BME280;23832;43.216;27.946;2022-08-23T04:34:47;100265.81;;;26.01;100.00
38022;BME280;23832;43.216;27.946;2022-08-23T04:36:50;100263.09;;;26.06;100.00
38022;BME280;23832;43.216;27.946;2022-08-23T04:38:52;100262.00;;;26.07;100.00
38022;BME280;23832;43.216;27.946;2022-08-23T04:40:56;100256.34;;;26.03;100.00
38022;BME280;23832;43.216;27.946;2022-08-23T04:43:15;100251.22;;;26.02;100.00
38022;BME280;23832;43.216;27.946;2022-08-23T04:45:17;100262.25;;;26.06;100.00
38022;BME280;23832;43.216;27.946;2022-08-23T04:47:19;100263.31;;;26.10;100.00
38022;BME280;23832;43.216;27.946;2022-08-23T04:49:21;100267.31;;;26.12;100.00
38022;BME280;23832;43.216;27.946;2022-08-23T04:51:23;100274.59;;;26.17;100.00
38022;BME280;23832;43.216;27.946;2022-08-23T04:53:26;100276.19;;;26.18;100.00
38022;BME280;23832;43.216;27.946;2022-08-23T04:55:29;100276.13;;;26.23;100.00
38022;BME280;23832;43.216;27.946;2022-08-23T04:57:33;100283.09;;;26.29;100.00
38022;BME280;23832;43.216;27.946;2022-08-23T04:59:35;100273.34;;;26.33;100.00
38022;BME280;23832;43.216;27.946;2022-08-23T05:01:39;100278.72;;;26.38;100.00
38022;BME280;23832;43.216;27.946;2022-08-23T05:03:42;100276.31;;;26.31;100.00
38022;BME280;23832;43.216;27.946;2022-08-23T05:05:45;100274.63;;;26.41;100.00
38022;BME280;23832;43.216;27.946;2022-08-23T05:07:47;100287.69;;;26.57;100.00
38022;BME280;23832;43.216;27.946;2022-08-23T05:09:49;100278.50;;;26.58;100.00
38022;BME280;23832;43.216;27.946;2022-08-23T05:11:51;100288.13;;;26.70;100.00
38022;BME280;23832;43.216;27.946;2022-08-23T05:13:54;100287.75;;;26.76;100.00
38022;BME280;23832;43.216;27.946;2022-08-23T05:15:57;100284.69;;;26.83;100.00
38022;BME280;23832;43.216;27.946;2022-08-23T05:17:58;100283.84;;;26.87;100.00
38022;BME280;23832;43.216;27.946;2022-08-23T05:20:01;100291.66;;;26.89;100.00
38022;BME280;23832;43.216;27.946;2022-08-23T05:22:03;100288.84;;;26.99;100.00
38022;BME280;23832;43.216;27.946;2022-08-23T05:24:05;100291.78;;;27.03;100.00
38022;BME280;23832;43.216;27.946;2022-08-23T05:26:08;100288.78;;;27.04;100.00
38022;BME280;23832;43.216;27.946;2022-08-23T05:28:11;100284.72;;;27.07;100.00
38022;BME280;23832;43.216;27.946;2022-08-23T05:30:14;100289.59;;;27.05;100.00
38022;BME280;23832;43.216;27.946;2022-08-23T05:32:16;100286.81;;;27.10;100.00
38022;BME280;23832;43.216;27.946;2022-08-23T05:34:18;100294.63;;;27.11;100.00
38022;BME280;23832;43.216;27.946;2022-08-23T05:36:21;100293.84;;;27.11;100.00
38022;BME280;23832;43.216;27.946;2022-08-23T05:38:24;100289.81;;;27.08;100.00
38022;BME280;23832;43.216;27.946;2022-08-23T05:40:26;100287.41;;;27.07;100.00
38022;BME280;23832;43.216;27.946;2022-08-23T05:42:28;100297.34;;;27.11;100.00
38022;BME280;23832;43.216;27.946;2022-08-23T05:44:31;100295.16;;;27.13;100.00
38022;BME280;23832;43.216;27.946;2022-08-23T05:46:43;100290.47;;;27.19;100.00
38022;BME280;23832;43.216;27.946;2022-08-23T05:48:49;100296.34;;;27.26;100.00
38022;BME280;23832;43.216;27.946;2022-08-23T05:50:52;100291.59;;;27.37;100.00
38022;BME280;23832;43.216;27.946;2022-08-23T05:52:54;100286.63;;;27.44;100.00
38022;BME280;23832;43.216;27.946;2022-08-23T05:54:56;100285.47;;;27.50;100.00
38022;BME280;23832;43.216;27.946;2022-08-23T05:56:58;100285.28;;;27.60;100.00
38022;BME280;23832;43.216;27.946;2022-08-23T05:59:04;100290.59;;;27.70;100.00
38022;BME280;23832;43.216;27.946;2022-08-23T06:01:07;100290.91;;;27.83;100.00
38022;BME280;23832;43.216;27.946;2022-08-23T06:03:10;100295.59;;;27.96;100.00
38022;BME280;23832;43.216;27.946;2022-08-23T06:05:12;100299.13;;;28.10;100.00
38022;BME280;23832;43.216;27.946;2022-08-23T06:07:14;100296.16;;;28.25;100.00
38022;BME280;23832;43.216;27.946;2022-08-23T06:09:17;100292.66;;;28.39;100.00
38022;BME280;23832;43.216;27.946;2022-08-23T06:11:21;100294.59;;;28.52;100.00
38022;BME280;23832;43.216;27.946;2022-08-23T06:13:23;100292.19;;;28.64;100.00
38022;BME280;23832;43.216;27.946;2022-08-23T06:15:25;100302.25;;;28.77;100.00
38022;BME280;23832;43.216;27.946;2022-08-23T06:17:27;100299.41;;;28.82;100.00
38022;BME280;23832;43.216;27.946;2022-08-23T06:19:31;100293.41;;;28.86;100.00
38022;BME280;23832;43.216;27.946;2022-08-23T06:21:34;100287.56;;;28.78;100.00
38022;BME280;23832;43.216;27.946;2022-08-23T06:23:37;100300.34;;;28.92;100.00
38022;BME280;23832;43.216;27.946;2022-08-23T06:25:39;100288.47;;;28.88;100.00
38022;BME280;23832;43.216;27.946;2022-08-23T06:27:41;100287.88;;;28.91;100.00
38022;BME280;23832;43.216;27.946;2022-08-23T06:29:44;100294.91;;;28.92;100.00
38022;BME280;23832;43.216;27.946;2022-08-23T06:31:48;100293.53;;;28.94;100.00
38022;BME280;23832;43.216;27.946;2022-08-23T06:33:50;100297.84;;;28.95;100.00
38022;BME280;23832;43.216;27.946;2022-08-23T06:36:03;100296.41;;;28.98;100.00
38022;BME280;23832;43.216;27.946;2022-08-23T06:38:05;100292.91;;;28.97;100.00
38022;BME280;23832;43.216;27.946;2022-08-23T06:40:08;100276.59;;;28.83;100.00
38022;BME280;23832;43.216;27.946;2022-08-23T06:42:11;100294.81;;;28.97;100.00
38022;BME280;23832;43.216;27.946;2022-08-23T06:44:14;100283.97;;;28.97;100.00
38022;BME280;23832;43.216;27.946;2022-08-23T06:46:18;100298.53;;;29.01;100.00
38022;BME280;23832;43.216;27.946;2022-08-23T06:48:20;100290.06;;;29.16;100.00
38022;BME280;23832;43.216;27.946;2022-08-23T06:50:22;100296.38;;;29.25;100.00
38022;BME280;23832;43.216;27.946;2022-08-23T06:52:26;100292.94;;;29.33;100.00
38022;BME280;23832;43.216;27.946;2022-08-23T06:54:30;100307.88;;;29.45;100.00
38022;BME280;23832;43.216;27.946;2022-08-23T06:56:33;100305.56;;;29.52;100.00
38022;BME280;23832;43.216;27.946;2022-08-23T06:58:36;100297.50;;;29.47;100.00
38022;BME280;23832;43.216;27.946;2022-08-23T07:00:38;100305.47;;;29.43;100.00
38022;BME280;23832;43.216;27.946;2022-08-23T07:02:40;100308.09;;;29.34;100.00
38022;BME280;23832;43.216;27.946;2022-08-23T07:04:42;100314.47;;;29.30;100.00
38022;BME280;23832;43.216;27.946;2022-08-23T07:06:45;100315.19;;;29.22;100.00
38022;BME280;23832;43.216;27.946;2022-08-23T07:08:49;100321.03;;;29.15;100.00
38022;BME280;23832;43.216;27.946;2022-08-23T07:10:54;100314.59;;;29.11;100.00
38022;BME280;23832;43.216;27.946;2022-08-23T07:12:56;100321.66;;;29.12;100.00
38022;BME280;23832;43.216;27.946;2022-08-23T07:14:58;100318.72;;;29.08;100.00
38022;BME280;23832;43.216;27.946;2022-08-23T07:17:01;100318.94;;;29.12;100.00
38022;BME280;23832;43.216;27.946;2022-08-23T07:19:03;100312.66;;;29.11;100.00
38022;BME280;23832;43.216;27.946;2022-08-23T07:21:05;100313.69;;;29.16;100.00
38022;BME280;23832;43.216;27.946;2022-08-23T07:23:07;100316.47;;;29.24;100.00
38022;BME280;23832;43.216;27.946;2022-08-23T07:25:13;100308.09;;;29.34;100.00
38022;BME280;23832;43.216;27.946;2022-08-23T07:27:15;100298.06;;;29.35;100.00
38022;BME280;23832;43.216;27.946;2022-08-23T07:29:18;100296.38;;;29.61;100.00
38022;BME280;23832;43.216;27.946;2022-08-23T07:31:23;100301.63;;;29.80;100.00
38022;BME280;23832;43.216;27.946;2022-08-23T07:33:26;100303.34;;;29.99;100.00
38022;BME280;23832;43.216;27.946;2022-08-23T07:35:28;100300.28;;;30.14;100.00
38022;BME280;23832;43.216;27.946;2022-08-23T07:37:30;100302.34;;;30.39;100.00
38022;BME280;23832;43.216;27.946;2022-08-23T07:39:33;100302.41;;;30.57;100.00
38022;BME280;23832;43.216;27.946;2022-08-23T07:41:36;100303.78;;;30.76;100.00
38022;BME280;23832;43.216;27.946;2022-08-23T07:43:40;100293.25;;;30.92;100.00
38022;BME280;23832;43.216;27.946;2022-08-23T07:45:42;100299.53;;;31.10;100.00
38022;BME280;23832;43.216;27.946;2022-08-23T07:47:44;100304.50;;;31.17;100.00
38022;BME280;23832;43.216;27.946;2022-08-23T07:49:46;100309.66;;;31.27;100.00
38022;BME280;23832;43.216;27.946;2022-08-23T07:51:50;100299.75;;;31.31;100.00
38022;BME280;23832;43.216;27.946;2022-08-23T07:53:52;100303.28;;;31.40;100.00
38022;BME280;23832;43.216;27.946;2022-08-23T07:55:55;100302.47;;;31.48;100.00
38022;BME280;23832;43.216;27.946;2022-08-23T07:57:59;100304.22;;;31.61;100.00
38022;BME280;23832;43.216;27.946;2022-08-23T08:00:01;100294.09;;;31.71;100.00
38022;BME280;23832;43.216;27.946;2022-08-23T08:02:03;100290.13;;;31.77;100.00
38022;BME280;23832;43.216;27.946;2022-08-23T08:04:05;100307.41;;;31.98;100.00
38022;BME280;23832;43.216;27.946;2022-08-23T08:06:09;100300.31;;;32.14;100.00
38022;BME280;23832;43.216;27.946;2022-08-23T08:08:12;100301.25;;;32.27;100.00
38022;BME280;23832;43.216;27.946;2022-08-23T08:10:14;100298.78;;;32.43;100.00
38022;BME280;23832;43.216;27.946;2022-08-23T08:12:16;100296.19;;;32.55;100.00
38022;BME280;23832;43.216;27.946;2022-08-23T08:14:20;100296.56;;;32.74;100.00
38022;BME280;23832;43.216;27.946;2022-08-23T08:16:24;100291.84;;;32.92;100.00
38022;BME280;23832;43.216;27.946;2022-08-23T08:18:27;100281.13;;;33.08;100.00
38022;BME280;23832;43.216;27.946;2022-08-23T08:20:29;100289.31;;;33.29;100.00
38022;BME280;23832;43.216;27.946;2022-08-23T08:22:34;100284.56;;;33.47;100.00
38022;BME280;23832;43.216;27.946;2022-08-23T08:24:36;100273.03;;;33.74;100.00
38022;BME280;23832;43.216;27.946;2022-08-23T08:26:38;100265.59;;;33.96;100.00
38022;BME280;23832;43.216;27.946;2022-08-23T08:28:40;100267.47;;;34.16;100.00
38022;BME280;23832;43.216;27.946;2022-08-23T08:30:44;100260.75;;;34.26;100.00
38022;BME280;23832;43.216;27.946;2022-08-23T08:32:46;100262.34;;;34.27;100.00
38022;BME280;23832;43.216;27.946;2022-08-23T08:34:48;100251.63;;;34.34;100.00
38022;BME280;23832;43.216;27.946;2022-08-23T08:36:51;100248.69;;;34.39;100.00
38022;BME280;23832;43.216;27.946;2022-08-23T08:38:54;100238.19;;;34.41;100.00
38022;BME280;23832;43.216;27.946;2022-08-23T08:41:01;100245.28;;;34.54;100.00
38022;BME280;23832;43.216;27.946;2022-08-23T08:43:15;100228.03;;;34.41;100.00
38022;BME280;23832;43.216;27.946;2022-08-23T08:45:23;100230.78;;;34.54;100.00
38022;BME280;23832;43.216;27.946;2022-08-23T08:47:39;100240.81;;;34.50;100.00
38022;BME280;23832;43.216;27.946;2022-08-23T08:49:47;100224.84;;;34.27;100.00
38022;BME280;23832;43.216;27.946;2022-08-23T08:51:54;100239.00;;;34.41;100.00
38022;BME280;23832;43.216;27.946;2022-08-23T08:53:58;100247.41;;;34.73;100.00
38022;BME280;23832;43.216;27.946;2022-08-23T08:56:08;100242.72;;;34.98;100.00
38022;BME280;23832;43.216;27.946;2022-08-23T08:58:19;100247.94;;;35.15;100.00
38022;BME280;23832;43.216;27.946;2022-08-23T09:00:25;100245.69;;;35.33;100.00
38022;BME280;23832;43.216;27.946;2022-08-23T09:02:32;100251.19;;;35.21;100.00
38022;BME280;23832;43.216;27.946;2022-08-23T09:04:34;100246.84;;;34.92;100.00
38022;BME280;23832;43.216;27.946;2022-08-23T09:06:46;100256.31;;;34.58;100.00
38022;BME280;23832;43.216;27.946;2022-08-23T09:09:03;100274.13;;;34.52;100.00
38022;BME280;23832;43.216;27.946;2022-08-23T09:11:15;100278.00;;;34.63;100.00
38022;BME280;23832;43.216;27.946;2022-08-23T09:13:39;100273.78;;;34.65;100.00
38022;BME280;23832;43.216;27.946;2022-08-23T09:15:52;100286.06;;;34.35;100.00
38022;BME280;23832;43.216;27.946;2022-08-23T09:18:05;100302.25;;;34.28;100.00
38022;BME280;23832;43.216;27.946;2022-08-23T09:20:09;100295.72;;;34.20;100.00
38022;BME280;23832;43.216;27.946;2022-08-23T09:22:19;100295.56;;;33.92;100.00
38022;BME280;23832;43.216;27.946;2022-08-23T09:24:27;100294.53;;;33.64;100.00
38022;BME280;23832;43.216;27.946;2022-08-23T09:26:30;100301.06;;;33.29;100.00
38022;BME280;23832;43.216;27.946;2022-08-23T09:28:34;100303.69;;;32.96;100.00
38022;BME280;23832;43.216;27.946;2022-08-23T09:30:51;100298.00;;;32.42;100.00
38022;BME280;23832;43.216;27.946;2022-08-23T09:32:54;100308.56;;;32.44;100.00
38022;BME280;23832;43.216;27.946;2022-08-23T09:35:18;100316.16;;;32.38;100.00
38022;BME280;23832;43.216;27.946;2022-08-23T09:37:22;100317.91;;;32.34;100.00
38022;BME280;23832;43.216;27.946;2022-08-23T09:39:29;100322.03;;;32.49;100.00
38022;BME280;23832;43.216;27.946;2022-08-23T09:41:33;100326.56;;;32.45;100.00
38022;BME280;23832;43.216;27.946;2022-08-23T09:43:43;100320.88;;;32.59;100.00
38022;BME280;23832;43.216;27.946;2022-08-23T09:45:57;100308.22;;;32.54;100.00
38022;BME280;23832;43.216;27.946;2022-08-23T09:47:59;100316.13;;;32.85;100.00
38022;BME280;23832;43.216;27.946;2022-08-23T09:50:14;100319.59;;;32.94;100.00
38022;BME280;23832;43.216;27.946;2022-08-23T09:52:23;100319.84;;;33.10;100.00
38022;BME280;23832;43.216;27.946;2022-08-23T09:54:29;100322.22;;;33.12;100.00
38022;BME280;23832;43.216;27.946;2022-08-23T09:56:36;100319.03;;;33.10;100.00
38022;BME280;23832;43.216;27.946;2022-08-23T09:58:40;100315.22;;;33.23;100.00
38022;BME280;23832;43.216;27.946;2022-08-23T10:00:43;100315.97;;;33.32;100.00
38022;BME280;23832;43.216;27.946;2022-08-23T10:02:45;100312.66;;;33.47;100.00
38022;BME280;23832;43.216;27.946;2022-08-23T10:04:56;100319.31;;;33.58;100.00
38022;BME280;23832;43.216;27.946;2022-08-23T10:06:59;100318.41;;;33.54;100.00
38022;BME280;23832;43.216;27.946;2022-08-23T10:09:04;100322.44;;;33.69;100.00
38022;BME280;23832;43.216;27.946;2022-08-23T10:11:12;100314.00;;;33.62;100.00
38022;BME280;23832;43.216;27.946;2022-08-23T10:13:17;100318.38;;;33.75;100.00
38022;BME280;23832;43.216;27.946;2022-08-23T10:15:22;100308.16;;;33.84;100.00
38022;BME280;23832;43.216;27.946;2022-08-23T10:17:35;100298.47;;;33.87;100.00
38022;BME280;23832;43.216;27.946;2022-08-23T10:19:51;100308.16;;;33.84;100.00
38022;BME280;23832;43.216;27.946;2022-08-23T10:22:01;100303.41;;;33.94;100.00
38022;BME280;23832;43.216;27.946;2022-08-23T10:24:22;100307.19;;;33.89;100.00
38022;BME280;23832;43.216;27.946;2022-08-23T10:26:30;100303.66;;;33.89;100.00
38022;BME280;23832;43.216;27.946;2022-08-23T10:28:40;100306.28;;;33.97;100.00
38022;BME280;23832;43.216;27.946;2022-08-23T10:31:14;100295.91;;;34.03;100.00
38022;BME280;23832;43.216;27.946;2022-08-23T10:33:23;100289.75;;;34.06;100.00
38022;BME280;23832;43.216;27.946;2022-08-23T10:35:31;100309.31;;;34.17;100.00